Devon Strait — CQHX — position and weather

sailwx.info

Track history (hours):
 
Tides and Currents Weather Stations Pressure Air Temp Water Temp Dewpoint Dewpoint Depression Visibility Wind Speed Wind Dir Waves Ship Positions

Devon Strait

Last reported at 2017-Nov-30 07:16 UTC. Time now 2017-Dec-15 12:10 UTC.
Position N 27°45' W 015°15'.
Warning: this ship's position is 15 days out of date.

Length 148 m; draft 9.8 m.

Type: Ship (hazmat cat D). MMSI: 255805599.

Date/timePositionNaut miles runAvg speedWind from/ knotsBaromVisibWave heightAir tempDewpointWater temp
2017-Nov-30 07:16N 27°45' W 015°15'313.1
2017-Nov-30 07:00N 27°48' W 015°15'713.0
2017-Nov-30 06:30N 27°55' W 015°15'612.7
2017-Nov-30 06:00N 28°01' W 015°16'713.1
2017-Nov-30 05:30N 28°05' W 015°22'4 8.1
2017-Nov-30 05:00N 28°08' W 015°25'0 1.0
2017-Nov-30 04:30N 28°09' W 015°25'0 0.0
2017-Nov-30 04:00N 28°09' W 015°25'0 0.0
2017-Nov-30 03:30N 28°09' W 015°25'0 0.0
2017-Nov-30 02:59N 28°09' W 015°25'0 0.0
2017-Nov-30 02:29N 28°09' W 015°25'0 0.0
2017-Nov-30 01:59N 28°09' W 015°25'0 0.0
2017-Nov-30 01:30N 28°09' W 015°25'0 0.0
2017-Nov-30 00:50N 28°09' W 015°25'0 0.0
2017-Nov-30 00:29N 28°09' W 015°25'0 0.0
2017-Nov-29 23:50N 28°09' W 015°25'0 0.0
2017-Nov-29 23:20N 28°09' W 015°25'0 0.0
2017-Nov-29 22:50N 28°09' W 015°25'0 0.0
2017-Nov-29 22:20N 28°09' W 015°25'0 0.0
2017-Nov-29 21:50N 28°09' W 015°25'0 0.0
2017-Nov-29 21:20N 28°09' W 015°25'0 0.0
2017-Nov-29 20:53N 28°09' W 015°25'0 0.0
2017-Nov-29 20:23N 28°09' W 015°25'0 0.0
2017-Nov-29 19:53N 28°09' W 015°25'0 0.0
2017-Nov-29 19:23N 28°09' W 015°25'0 0.0
2017-Nov-29 18:50N 28°09' W 015°25'0 0.0
2017-Nov-29 18:23N 28°09' W 015°25'0 0.0
2017-Nov-29 18:00N 28°09' W 015°25'2 3.7
2017-Nov-29 17:30N 28°07' W 015°24'3 6.0
2017-Nov-29 17:01N 28°08' W 015°21'612.2
2017-Nov-29 16:31N 28°11' W 015°15'612.6
2017-Nov-29 16:01N 28°16' W 015°10'612.5
2017-Nov-29 15:31N 28°21' W 015°06'612.4
2017-Nov-29 15:01N 28°25' W 015°01'612.6
2017-Nov-29 14:30N 28°30' W 014°56'  
2017-Nov-26 13:32N 35°58' W 005°32'0 4.3
2017-Nov-26 13:30N 35°58' W 005°32'5 9.0
2017-Nov-26 12:59N 35°59' W 005°27'613.6
2017-Nov-26 12:30N 36°00' W 005°19'3 0.1
2017-Nov-24 18:21N 35°60' W 005°15'9 0.5
2017-Nov-24 01:03N 36°06' W 005°24'0 7.1
2017-Nov-24 01:00N 36°06' W 005°23'3 6.0
2017-Nov-24 00:30N 36°03' W 005°22'4 7.1
2017-Nov-24 00:00N 36°03' W 005°17'1 1.1
2017-Nov-23 23:30N 36°03' W 005°18'1 2.6
2017-Nov-23 23:00N 36°03' W 005°20'2 3.6
2017-Nov-23 22:23N 36°02' W 005°22'3 7.5
2017-Nov-23 22:00N 35°60' W 005°21'3 6.2
2017-Nov-23 21:30N 35°58' W 005°24'3 6.4
2017-Nov-23 21:00N 35°57' W 005°28'  
Track history (hours):
 
Tides and Currents Weather Stations Pressure Air Temp Water Temp Dewpoint Dewpoint Depression Visibility Wind Speed Wind Dir Waves Ship Positions

Devon Strait

Last reported at 2017-Nov-30 07:16 UTC. Time now 2017-Dec-15 12:10 UTC.
Position N 27°45' W 015°15'.
Warning: this ship's position is 15 days out of date.

Length 148 m; draft 9.8 m.

Type: Ship (hazmat cat D). MMSI: 255805599.

Date/timePositionNaut miles runAvg speedWind from/ knotsBaromVisibWave heightAir tempDewpointWater temp
2017-Nov-30 07:16N 27°45' W 015°15'313.1
2017-Nov-30 07:00N 27°48' W 015°15'713.0
2017-Nov-30 06:30N 27°55' W 015°15'612.7
2017-Nov-30 06:00N 28°01' W 015°16'713.1
2017-Nov-30 05:30N 28°05' W 015°22'4 8.1
2017-Nov-30 05:00N 28°08' W 015°25'0 1.0
2017-Nov-30 04:30N 28°09' W 015°25'0 0.0
2017-Nov-30 04:00N 28°09' W 015°25'0 0.0
2017-Nov-30 03:30N 28°09' W 015°25'0 0.0
2017-Nov-30 02:59N 28°09' W 015°25'0 0.0
2017-Nov-30 02:29N 28°09' W 015°25'0 0.0
2017-Nov-30 01:59N 28°09' W 015°25'0 0.0
2017-Nov-30 01:30N 28°09' W 015°25'0 0.0
2017-Nov-30 00:50N 28°09' W 015°25'0 0.0
2017-Nov-30 00:29N 28°09' W 015°25'0 0.0
2017-Nov-29 23:50N 28°09' W 015°25'0 0.0
2017-Nov-29 23:20N 28°09' W 015°25'0 0.0
2017-Nov-29 22:50N 28°09' W 015°25'0 0.0
2017-Nov-29 22:20N 28°09' W 015°25'0 0.0
2017-Nov-29 21:50N 28°09' W 015°25'0 0.0
2017-Nov-29 21:20N 28°09' W 015°25'0 0.0
2017-Nov-29 20:53N 28°09' W 015°25'0 0.0
2017-Nov-29 20:23N 28°09' W 015°25'0 0.0
2017-Nov-29 19:53N 28°09' W 015°25'0 0.0
2017-Nov-29 19:23N 28°09' W 015°25'0 0.0
2017-Nov-29 18:50N 28°09' W 015°25'0 0.0
2017-Nov-29 18:23N 28°09' W 015°25'0 0.0
2017-Nov-29 18:00N 28°09' W 015°25'2 3.7
2017-Nov-29 17:30N 28°07' W 015°24'3 6.0
2017-Nov-29 17:01N 28°08' W 015°21'612.2
2017-Nov-29 16:31N 28°11' W 015°15'612.6
2017-Nov-29 16:01N 28°16' W 015°10'612.5
2017-Nov-29 15:31N 28°21' W 015°06'612.4
2017-Nov-29 15:01N 28°25' W 015°01'612.6
2017-Nov-29 14:30N 28°30' W 014°56'  
2017-Nov-26 13:32N 35°58' W 005°32'0 4.3
2017-Nov-26 13:30N 35°58' W 005°32'5 9.0
2017-Nov-26 12:59N 35°59' W 005°27'613.6
2017-Nov-26 12:30N 36°00' W 005°19'3 0.1
2017-Nov-24 18:21N 35°60' W 005°15'9 0.5
2017-Nov-24 01:03N 36°06' W 005°24'0 7.1
2017-Nov-24 01:00N 36°06' W 005°23'3 6.0
2017-Nov-24 00:30N 36°03' W 005°22'4 7.1
2017-Nov-24 00:00N 36°03' W 005°17'1 1.1
2017-Nov-23 23:30N 36°03' W 005°18'1 2.6
2017-Nov-23 23:00N 36°03' W 005°20'2 3.6
2017-Nov-23 22:23N 36°02' W 005°22'3 7.5
2017-Nov-23 22:00N 35°60' W 005°21'3 6.2
2017-Nov-23 21:30N 35°58' W 005°24'3 6.4
2017-Nov-23 21:00N 35°57' W 005°28'  

Dump ship's entire track history